sensor_id;sensor_type;location;lat;lon;timestamp;pressure;altitude;pressure_sealevel;temperature;humidity
4814;BME280;15375;48.540;9.268;2022-10-31T00:01:13;97833.50;;;10.68;100.00
4814;BME280;15375;48.540;9.268;2022-10-31T00:03:39;97825.75;;;10.63;100.00
4814;BME280;15375;48.540;9.268;2022-10-31T00:06:04;97830.41;;;10.66;100.00
4814;BME280;15375;48.540;9.268;2022-10-31T00:08:29;97804.44;;;10.51;100.00
4814;BME280;15375;48.540;9.268;2022-10-31T00:10:55;97814.94;;;10.52;100.00
4814;BME280;15375;48.540;9.268;2022-10-31T00:13:20;97832.78;;;10.60;100.00
4814;BME280;15375;48.540;9.268;2022-10-31T00:15:45;97818.09;;;10.47;100.00
4814;BME280;15375;48.540;9.268;2022-10-31T00:18:11;97822.41;;;10.48;100.00
4814;BME280;15375;48.540;9.268;2022-10-31T00:20:37;97815.06;;;10.42;100.00
4814;BME280;15375;48.540;9.268;2022-10-31T00:23:03;97804.19;;;10.35;100.00
4814;BME280;15375;48.540;9.268;2022-10-31T00:25:33;97821.25;;;10.46;100.00
4814;BME280;15375;48.540;9.268;2022-10-31T00:27:59;97800.41;;;10.25;100.00
4814;BME280;15375;48.540;9.268;2022-10-31T00:30:24;97833.75;;;10.40;100.00
4814;BME280;15375;48.540;9.268;2022-10-31T00:32:49;97790.41;;;10.08;100.00
4814;BME280;15375;48.540;9.268;2022-10-31T00:35:15;97812.50;;;10.24;100.00
4814;BME280;15375;48.540;9.268;2022-10-31T00:37:40;97819.06;;;10.30;100.00
4814;BME280;15375;48.540;9.268;2022-10-31T00:40:06;97782.59;;;10.10;100.00
4814;BME280;15375;48.540;9.268;2022-10-31T00:42:32;97824.94;;;10.25;100.00
4814;BME280;15375;48.540;9.268;2022-10-31T00:44:57;97815.31;;;10.17;100.00
4814;BME280;15375;48.540;9.268;2022-10-31T00:47:22;97816.81;;;10.21;100.00
4814;BME280;15375;48.540;9.268;2022-10-31T00:49:48;97822.19;;;10.32;100.00
4814;BME280;15375;48.540;9.268;2022-10-31T00:52:13;97817.53;;;10.25;100.00
4814;BME280;15375;48.540;9.268;2022-10-31T00:54:38;97831.44;;;10.38;100.00
4814;BME280;15375;48.540;9.268;2022-10-31T00:57:04;97817.47;;;10.33;100.00
4814;BME280;15375;48.540;9.268;2022-10-31T00:59:29;97821.84;;;10.23;100.00
4814;BME280;15375;48.540;9.268;2022-10-31T01:01:54;97809.13;;;10.06;100.00
4814;BME280;15375;48.540;9.268;2022-10-31T01:04:20;97729.03;;;9.45;100.00
4814;BME280;15375;48.540;9.268;2022-10-31T01:06:45;97825.53;;;9.99;100.00
4814;BME280;15375;48.540;9.268;2022-10-31T01:09:10;97801.50;;;9.83;100.00
4814;BME280;15375;48.540;9.268;2022-10-31T01:11:36;97801.94;;;9.82;100.00
4814;BME280;15375;48.540;9.268;2022-10-31T01:14:01;97812.78;;;9.89;100.00
4814;BME280;15375;48.540;9.268;2022-10-31T01:16:27;97786.38;;;9.79;100.00
4814;BME280;15375;48.540;9.268;2022-10-31T01:18:54;97796.09;;;9.80;100.00
4814;BME280;15375;48.540;9.268;2022-10-31T01:21:25;97807.38;;;9.82;100.00
4814;BME280;15375;48.540;9.268;2022-10-31T01:23:53;97805.53;;;9.68;100.00
4814;BME280;15375;48.540;9.268;2022-10-31T01:26:22;97794.63;;;9.64;100.00
4814;BME280;15375;48.540;9.268;2022-10-31T01:28:56;97797.44;;;9.54;100.00
4814;BME280;15375;48.540;9.268;2022-10-31T01:31:25;97813.75;;;9.57;100.00
4814;BME280;15375;48.540;9.268;2022-10-31T01:33:51;97783.59;;;9.31;100.00
4814;BME280;15375;48.540;9.268;2022-10-31T01:36:20;97823.47;;;9.58;100.00
4814;BME280;15375;48.540;9.268;2022-10-31T01:38:46;97781.56;;;9.42;100.00
4814;BME280;15375;48.540;9.268;2022-10-31T01:41:15;97814.09;;;9.67;100.00
4814;BME280;15375;48.540;9.268;2022-10-31T01:43:46;97819.41;;;9.84;100.00
4814;BME280;15375;48.540;9.268;2022-10-31T01:46:12;97790.59;;;9.87;100.00
4814;BME280;15375;48.540;9.268;2022-10-31T01:48:39;97807.97;;;10.07;100.00
4814;BME280;15375;48.540;9.268;2022-10-31T01:51:05;97788.25;;;9.89;100.00
4814;BME280;15375;48.540;9.268;2022-10-31T01:53:32;97796.78;;;9.94;100.00
4814;BME280;15375;48.540;9.268;2022-10-31T01:55:59;97797.59;;;9.88;100.00
4814;BME280;15375;48.540;9.268;2022-10-31T01:58:28;97809.19;;;9.99;100.00
4814;BME280;15375;48.540;9.268;2022-10-31T02:00:58;97777.88;;;9.70;100.00
4814;BME280;15375;48.540;9.268;2022-10-31T02:03:25;97789.16;;;9.72;100.00
4814;BME280;15375;48.540;9.268;2022-10-31T02:05:53;97803.19;;;9.67;100.00
4814;BME280;15375;48.540;9.268;2022-10-31T02:08:25;97775.31;;;9.48;100.00
4814;BME280;15375;48.540;9.268;2022-10-31T02:10:51;97766.78;;;9.39;100.00
4814;BME280;15375;48.540;9.268;2022-10-31T02:13:17;97796.97;;;9.66;100.00
4814;BME280;15375;48.540;9.268;2022-10-31T02:15:47;97784.28;;;9.42;100.00
4814;BME280;15375;48.540;9.268;2022-10-31T02:18:13;97794.03;;;9.39;100.00
4814;BME280;15375;48.540;9.268;2022-10-31T02:20:49;97786.28;;;9.34;100.00
4814;BME280;15375;48.540;9.268;2022-10-31T02:29:22;97796.38;;;9.41;100.00
4814;BME280;15375;48.540;9.268;2022-10-31T02:31:59;97802.06;;;9.57;100.00
4814;BME280;15375;48.540;9.268;2022-10-31T02:34:34;97806.38;;;9.58;100.00
4814;BME280;15375;48.540;9.268;2022-10-31T02:37:03;97796.63;;;9.60;100.00
4814;BME280;15375;48.540;9.268;2022-10-31T02:42:32;97789.22;;;9.61;100.00
4814;BME280;15375;48.540;9.268;2022-10-31T02:45:23;97801.69;;;9.58;100.00
4814;BME280;15375;48.540;9.268;2022-10-31T02:47:54;97798.63;;;9.49;100.00
4814;BME280;15375;48.540;9.268;2022-10-31T02:50:29;97794.00;;;9.43;100.00
4814;BME280;15375;48.540;9.268;2022-10-31T02:52:56;97790.94;;;9.37;100.00
4814;BME280;15375;48.540;9.268;2022-10-31T02:58:11;97787.09;;;9.28;100.00
4814;BME280;15375;48.540;9.268;2022-10-31T03:03:26;97786.69;;;9.33;100.00
4814;BME280;15375;48.540;9.268;2022-10-31T03:06:06;97797.16;;;9.34;100.00
4814;BME280;15375;48.540;9.268;2022-10-31T03:08:49;97800.28;;;9.36;100.00
4814;BME280;15375;48.540;9.268;2022-10-31T03:11:18;97797.97;;;9.28;100.00
4814;BME280;15375;48.540;9.268;2022-10-31T03:14:09;97798.75;;;9.28;100.00
4814;BME280;15375;48.540;9.268;2022-10-31T03:16:51;97793.31;;;9.25;100.00
4814;BME280;15375;48.540;9.268;2022-10-31T03:19:27;97798.81;;;9.21;100.00
4814;BME280;15375;48.540;9.268;2022-10-31T03:22:10;97777.88;;;9.11;100.00
4814;BME280;15375;48.540;9.268;2022-10-31T03:24:39;97781.75;;;9.10;100.00
4814;BME280;15375;48.540;9.268;2022-10-31T03:27:07;97780.97;;;9.13;100.00
4814;BME280;15375;48.540;9.268;2022-10-31T03:29:36;97782.06;;;9.19;100.00
4814;BME280;15375;48.540;9.268;2022-10-31T03:32:07;97786.34;;;9.20;100.00
4814;BME280;15375;48.540;9.268;2022-10-31T03:34:35;97787.91;;;9.21;100.00
4814;BME280;15375;48.540;9.268;2022-10-31T03:37:04;97774.38;;;9.11;100.00
4814;BME280;15375;48.540;9.268;2022-10-31T03:39:31;97766.25;;;9.04;100.00
4814;BME280;15375;48.540;9.268;2022-10-31T03:42:23;97797.63;;;9.22;100.00
4814;BME280;15375;48.540;9.268;2022-10-31T03:45:14;97792.59;;;9.21;100.00
4814;BME280;15375;48.540;9.268;2022-10-31T03:47:42;97795.69;;;9.19;100.00
4814;BME280;15375;48.540;9.268;2022-10-31T03:50:09;97780.56;;;9.15;100.00
4814;BME280;15375;48.540;9.268;2022-10-31T03:58:35;97786.38;;;9.17;100.00
4814;BME280;15375;48.540;9.268;2022-10-31T04:01:05;97782.56;;;9.04;100.00
4814;BME280;15375;48.540;9.268;2022-10-31T04:03:36;97771.69;;;9.00;100.00
4814;BME280;15375;48.540;9.268;2022-10-31T04:06:06;97774.03;;;8.98;100.00
4814;BME280;15375;48.540;9.268;2022-10-31T04:08:39;97781.38;;;9.08;100.00
4814;BME280;15375;48.540;9.268;2022-10-31T04:11:08;97782.56;;;9.04;100.00
4814;BME280;15375;48.540;9.268;2022-10-31T04:13:37;97784.50;;;9.03;100.00
4814;BME280;15375;48.540;9.268;2022-10-31T04:16:05;97762.81;;;8.85;100.00
4814;BME280;15375;48.540;9.268;2022-10-31T04:18:30;97772.47;;;8.97;100.00
4814;BME280;15375;48.540;9.268;2022-10-31T04:21:04;97778.69;;;9.01;100.00
4814;BME280;15375;48.540;9.268;2022-10-31T04:23:30;97745.75;;;8.74;100.00
4814;BME280;15375;48.540;9.268;2022-10-31T04:25:56;97775.56;;;8.99;100.00
4814;BME280;15375;48.540;9.268;2022-10-31T04:28:21;97788.75;;;9.04;100.00
4814;BME280;15375;48.540;9.268;2022-10-31T04:30:47;97762.81;;;8.82;100.00
4814;BME280;15375;48.540;9.268;2022-10-31T04:33:12;97777.13;;;8.96;100.00
4814;BME280;15375;48.540;9.268;2022-10-31T04:35:38;97762.44;;;8.83;100.00
4814;BME280;15375;48.540;9.268;2022-10-31T04:38:03;97743.41;;;8.76;100.00
4814;BME280;15375;48.540;9.268;2022-10-31T04:40:29;97766.31;;;8.86;100.00
4814;BME280;15375;48.540;9.268;2022-10-31T04:42:54;97731.03;;;8.65;100.00
4814;BME280;15375;48.540;9.268;2022-10-31T04:45:19;97757.38;;;8.82;100.00
4814;BME280;15375;48.540;9.268;2022-10-31T04:47:45;97768.63;;;8.84;100.00
4814;BME280;15375;48.540;9.268;2022-10-31T04:50:10;97766.31;;;8.79;100.00
4814;BME280;15375;48.540;9.268;2022-10-31T04:52:40;97769.41;;;8.84;100.00
4814;BME280;15375;48.540;9.268;2022-10-31T04:55:06;97758.56;;;8.74;100.00
4814;BME280;15375;48.540;9.268;2022-10-31T04:57:31;97767.16;;;8.76;100.00
4814;BME280;15375;48.540;9.268;2022-10-31T04:59:57;97753.97;;;8.64;100.00
4814;BME280;15375;48.540;9.268;2022-10-31T05:02:22;97760.94;;;8.68;100.00
4814;BME280;15375;48.540;9.268;2022-10-31T05:04:47;97748.13;;;8.65;100.00
4814;BME280;15375;48.540;9.268;2022-10-31T05:07:13;97764.03;;;8.74;100.00
4814;BME280;15375;48.540;9.268;2022-10-31T05:09:38;97729.88;;;8.59;100.00
4814;BME280;15375;48.540;9.268;2022-10-31T05:12:04;97743.09;;;8.60;100.00
4814;BME280;15375;48.540;9.268;2022-10-31T05:14:29;97750.84;;;8.65;100.00
4814;BME280;15375;48.540;9.268;2022-10-31T05:16:54;97740.41;;;8.53;100.00
4814;BME280;15375;48.540;9.268;2022-10-31T05:19:20;97738.44;;;8.54;100.00
4814;BME280;15375;48.540;9.268;2022-10-31T05:21:45;97727.22;;;8.52;100.00
4814;BME280;15375;48.540;9.268;2022-10-31T05:24:10;97727.22;;;8.52;100.00
4814;BME280;15375;48.540;9.268;2022-10-31T05:26:36;97720.59;;;8.53;100.00
4814;BME280;15375;48.540;9.268;2022-10-31T05:29:01;97727.59;;;8.54;100.00
4814;BME280;15375;48.540;9.268;2022-10-31T05:31:26;97729.13;;;8.58;100.00
4814;BME280;15375;48.540;9.268;2022-10-31T05:33:52;97713.66;;;8.41;100.00
4814;BME280;15375;48.540;9.268;2022-10-31T05:36:17;97722.97;;;8.47;100.00
4814;BME280;15375;48.540;9.268;2022-10-31T05:38:43;97716.38;;;8.38;100.00
4814;BME280;15375;48.540;9.268;2022-10-31T05:41:08;97732.25;;;8.53;100.00
4814;BME280;15375;48.540;9.268;2022-10-31T05:43:34;97715.19;;;8.46;100.00
4814;BME280;15375;48.540;9.268;2022-10-31T05:46:00;97723.34;;;8.49;100.00
4814;BME280;15375;48.540;9.268;2022-10-31T05:48:25;97713.25;;;8.46;100.00
4814;BME280;15375;48.540;9.268;2022-10-31T05:50:51;97593.16;;;7.64;100.00
4814;BME280;15375;48.540;9.268;2022-10-31T05:53:17;97697.00;;;8.36;100.00
4814;BME280;15375;48.540;9.268;2022-10-31T05:55:42;97732.63;;;8.59;100.00
4814;BME280;15375;48.540;9.268;2022-10-31T05:58:09;97714.81;;;8.44;100.00
4814;BME280;15375;48.540;9.268;2022-10-31T06:00:34;97736.53;;;8.47;100.00
4814;BME280;15375;48.540;9.268;2022-10-31T06:03:07;97725.31;;;8.34;100.00
4814;BME280;15375;48.540;9.268;2022-10-31T06:05:33;97716.78;;;8.32;100.00
4814;BME280;15375;48.540;9.268;2022-10-31T06:07:59;97726.44;;;8.44;100.00
4814;BME280;15375;48.540;9.268;2022-10-31T06:10:24;97715.63;;;8.37;100.00
4814;BME280;15375;48.540;9.268;2022-10-31T06:12:50;97712.50;;;8.42;100.00
4814;BME280;15375;48.540;9.268;2022-10-31T06:15:16;97732.63;;;8.55;100.00
4814;BME280;15375;48.540;9.268;2022-10-31T06:17:42;97697.41;;;8.27;100.00
4814;BME280;15375;48.540;9.268;2022-10-31T06:20:08;97727.97;;;8.56;100.00
4814;BME280;15375;48.540;9.268;2022-10-31T06:22:33;97727.59;;;8.57;100.00
4814;BME280;15375;48.540;9.268;2022-10-31T06:24:59;97693.47;;;8.42;100.00
4814;BME280;15375;48.540;9.268;2022-10-31T06:27:25;97740.69;;;8.76;100.00
4814;BME280;15375;48.540;9.268;2022-10-31T06:29:50;97703.53;;;8.52;100.00
4814;BME280;15375;48.540;9.268;2022-10-31T06:32:16;97736.81;;;8.81;100.00
4814;BME280;15375;48.540;9.268;2022-10-31T06:34:42;97713.94;;;8.64;100.00
4814;BME280;15375;48.540;9.268;2022-10-31T06:37:10;97718.59;;;8.67;100.00
4814;BME280;15375;48.540;9.268;2022-10-31T06:39:36;97715.09;;;8.67;100.00
4814;BME280;15375;48.540;9.268;2022-10-31T06:42:02;97751.53;;;8.90;100.00
4814;BME280;15375;48.540;9.268;2022-10-31T06:44:27;97734.47;;;8.83;100.00
4814;BME280;15375;48.540;9.268;2022-10-31T06:46:53;97719.31;;;8.85;100.00
4814;BME280;15375;48.540;9.268;2022-10-31T06:49:19;97733.19;;;9.05;100.00
4814;BME280;15375;48.540;9.268;2022-10-31T06:51:47;97722.28;;;9.09;100.00
4814;BME280;15375;48.540;9.268;2022-10-31T06:54:12;97741.22;;;9.26;100.00
4814;BME280;15375;48.540;9.268;2022-10-31T06:56:38;97755.91;;;9.39;100.00
4814;BME280;15375;48.540;9.268;2022-10-31T06:59:03;97724.13;;;9.26;100.00
4814;BME280;15375;48.540;9.268;2022-10-31T07:01:29;97741.53;;;9.39;100.00
4814;BME280;15375;48.540;9.268;2022-10-31T07:03:54;97714.03;;;9.26;100.00
4814;BME280;15375;48.540;9.268;2022-10-31T07:06:19;97731.03;;;9.41;100.00
4814;BME280;15375;48.540;9.268;2022-10-31T07:08:44;97725.50;;;9.51;100.00
4814;BME280;15375;48.540;9.268;2022-10-31T07:11:10;97727.75;;;9.63;100.00
4814;BME280;15375;48.540;9.268;2022-10-31T07:13:35;97736.91;;;9.84;100.00
4814;BME280;15375;48.540;9.268;2022-10-31T07:16:03;97725.94;;;9.94;100.00
4814;BME280;15375;48.540;9.268;2022-10-31T07:18:29;97730.88;;;10.03;100.00
4814;BME280;15375;48.540;9.268;2022-10-31T07:20:54;97713.31;;;10.14;100.00
4814;BME280;15375;48.540;9.268;2022-10-31T07:23:20;97698.53;;;10.12;100.00
4814;BME280;15375;48.540;9.268;2022-10-31T07:25:45;97705.81;;;10.22;100.00
4814;BME280;15375;48.540;9.268;2022-10-31T07:28:11;97722.06;;;10.33;100.00
4814;BME280;15375;48.540;9.268;2022-10-31T07:30:37;97730.03;;;10.50;100.00
4814;BME280;15375;48.540;9.268;2022-10-31T07:33:03;97719.09;;;10.54;100.00
4814;BME280;15375;48.540;9.268;2022-10-31T07:35:29;97745.16;;;10.88;100.00
4814;BME280;15375;48.540;9.268;2022-10-31T07:38:10;97727.63;;;10.89;100.00
4814;BME280;15375;48.540;9.268;2022-10-31T07:40:35;97733.22;;;11.09;100.00
4814;BME280;15375;48.540;9.268;2022-10-31T07:43:01;97710.56;;;11.12;100.00
4814;BME280;15375;48.540;9.268;2022-10-31T07:45:27;97717.22;;;11.61;100.00
4814;BME280;15375;48.540;9.268;2022-10-31T07:47:52;97733.78;;;12.00;100.00
4814;BME280;15375;48.540;9.268;2022-10-31T07:50:20;97725.16;;;12.02;100.00
4814;BME280;15375;48.540;9.268;2022-10-31T07:52:46;97706.16;;;11.95;100.00
4814;BME280;15375;48.540;9.268;2022-10-31T07:55:12;97725.78;;;12.33;100.00
4814;BME280;15375;48.540;9.268;2022-10-31T07:57:38;97724.81;;;12.43;100.00
4814;BME280;15375;48.540;9.268;2022-10-31T08:00:05;97720.31;;;12.72;100.00
4814;BME280;15375;48.540;9.268;2022-10-31T08:02:31;97717.38;;;12.82;100.00
4814;BME280;15375;48.540;9.268;2022-10-31T08:04:56;97692.91;;;12.56;100.00
4814;BME280;15375;48.540;9.268;2022-10-31T08:07:21;97728.97;;;12.70;100.00
4814;BME280;15375;48.540;9.268;2022-10-31T08:09:47;97723.75;;;12.56;100.00
4814;BME280;15375;48.540;9.268;2022-10-31T08:12:12;97717.53;;;12.56;100.00
4814;BME280;15375;48.540;9.268;2022-10-31T08:14:37;97713.38;;;12.48;100.00
4814;BME280;15375;48.540;9.268;2022-10-31T08:17:03;97723.84;;;12.53;100.00
4814;BME280;15375;48.540;9.268;2022-10-31T08:19:28;97719.06;;;12.57;100.00
4814;BME280;15375;48.540;9.268;2022-10-31T08:21:53;97728.81;;;12.77;100.00
4814;BME280;15375;48.540;9.268;2022-10-31T08:24:23;97715.28;;;12.70;100.00
4814;BME280;15375;48.540;9.268;2022-10-31T08:26:48;97723.66;;;12.99;100.00
4814;BME280;15375;48.540;9.268;2022-10-31T08:29:13;97722.16;;;13.34;100.00
4814;BME280;15375;48.540;9.268;2022-10-31T08:31:40;97726.16;;;13.29;100.00
4814;BME280;15375;48.540;9.268;2022-10-31T08:34:06;97724.13;;;13.33;100.00
4814;BME280;15375;48.540;9.268;2022-10-31T08:36:31;97718.31;;;13.31;100.00
4814;BME280;15375;48.540;9.268;2022-10-31T08:38:57;97702.63;;;13.48;100.00
4814;BME280;15375;48.540;9.268;2022-10-31T08:41:22;97717.34;;;14.02;100.00
4814;BME280;15375;48.540;9.268;2022-10-31T08:43:48;97717.69;;;14.37;99.11
4814;BME280;15375;48.540;9.268;2022-10-31T08:46:13;97714.19;;;14.49;98.22
4814;BME280;15375;48.540;9.268;2022-10-31T08:48:39;97714.03;;;14.68;95.58
4814;BME280;15375;48.540;9.268;2022-10-31T08:51:05;97705.94;;;14.65;93.54
4814;BME280;15375;48.540;9.268;2022-10-31T08:53:31;97721.81;;;14.57;94.72
4814;BME280;15375;48.540;9.268;2022-10-31T08:55:56;97705.47;;;14.66;95.69
4814;BME280;15375;48.540;9.268;2022-10-31T08:58:23;97714.50;;;14.67;97.55
4814;BME280;15375;48.540;9.268;2022-10-31T09:00:51;97683.25;;;14.48;96.60
4814;BME280;15375;48.540;9.268;2022-10-31T09:03:23;97717.84;;;14.87;96.01
4814;BME280;15375;48.540;9.268;2022-10-31T09:05:49;97690.78;;;14.86;92.77
4814;BME280;15375;48.540;9.268;2022-10-31T09:08:15;97717.94;;;14.96;93.16
4814;BME280;15375;48.540;9.268;2022-10-31T09:10:41;97703.38;;;15.12;92.77
4814;BME280;15375;48.540;9.268;2022-10-31T09:13:10;97714.03;;;15.10;91.60
4814;BME280;15375;48.540;9.268;2022-10-31T09:15:38;97656.63;;;14.74;92.32
4814;BME280;15375;48.540;9.268;2022-10-31T09:18:04;97714.03;;;15.22;90.75
4814;BME280;15375;48.540;9.268;2022-10-31T09:20:31;97700.72;;;15.21;90.02
4814;BME280;15375;48.540;9.268;2022-10-31T09:22:58;97700.66;;;15.50;89.57
4814;BME280;15375;48.540;9.268;2022-10-31T09:25:24;97694.34;;;15.74;88.89
4814;BME280;15375;48.540;9.268;2022-10-31T09:27:49;97689.59;;;15.87;89.09
4814;BME280;15375;48.540;9.268;2022-10-31T09:30:14;97697.31;;;15.80;89.46
4814;BME280;15375;48.540;9.268;2022-10-31T09:32:40;97696.47;;;15.58;87.09
4814;BME280;15375;48.540;9.268;2022-10-31T09:35:06;97674.47;;;15.58;87.21
4814;BME280;15375;48.540;9.268;2022-10-31T09:37:31;97687.72;;;15.97;86.98
4814;BME280;15375;48.540;9.268;2022-10-31T09:39:57;97678.59;;;16.22;84.12
4814;BME280;15375;48.540;9.268;2022-10-31T09:42:48;97684.16;;;16.65;83.92
4814;BME280;15375;48.540;9.268;2022-10-31T09:50:46;97672.22;;;16.46;82.60
4814;BME280;15375;48.540;9.268;2022-10-31T09:53:29;97669.78;;;16.92;80.92
4814;BME280;15375;48.540;9.268;2022-10-31T09:55:57;97672.69;;;17.19;78.08
4814;BME280;15375;48.540;9.268;2022-10-31T09:58:26;97673.44;;;17.19;75.32
4814;BME280;15375;48.540;9.268;2022-10-31T10:00:54;97685.69;;;17.18;75.18
4814;BME280;15375;48.540;9.268;2022-10-31T10:03:34;97674.75;;;17.37;75.75
4814;BME280;15375;48.540;9.268;2022-10-31T10:06:06;97681.75;;;17.59;75.17
4814;BME280;15375;48.540;9.268;2022-10-31T10:08:34;97662.31;;;17.32;74.66
4814;BME280;15375;48.540;9.268;2022-10-31T10:16:44;97672.81;;;18.31;73.54
4814;BME280;15375;48.540;9.268;2022-10-31T10:19:25;97668.66;;;18.63;71.71
4814;BME280;15375;48.540;9.268;2022-10-31T10:24:55;97670.34;;;18.42;68.64
4814;BME280;15375;48.540;9.268;2022-10-31T10:30:14;97666.34;;;18.71;69.62
4814;BME280;15375;48.540;9.268;2022-10-31T10:32:45;97659.13;;;18.73;69.00
4814;BME280;15375;48.540;9.268;2022-10-31T10:37:49;97646.38;;;18.76;68.58
4814;BME280;15375;48.540;9.268;2022-10-31T10:40:21;97657.19;;;18.46;71.88
4814;BME280;15375;48.540;9.268;2022-10-31T10:48:58;97649.34;;;18.27;74.45
4814;BME280;15375;48.540;9.268;2022-10-31T10:51:58;97642.09;;;17.93;72.92
4814;BME280;15375;48.540;9.268;2022-10-31T10:59:48;97633.03;;;19.16;68.95
4814;BME280;15375;48.540;9.268;2022-10-31T11:02:24;97621.78;;;19.61;66.51
4814;BME280;15375;48.540;9.268;2022-10-31T11:04:55;97609.50;;;19.86;64.24
4814;BME280;15375;48.540;9.268;2022-10-31T11:07:21;97619.84;;;19.77;65.76
4814;BME280;15375;48.540;9.268;2022-10-31T11:09:47;97610.50;;;20.12;64.87
4814;BME280;15375;48.540;9.268;2022-10-31T11:12:30;97600.00;;;19.54;62.03
4814;BME280;15375;48.540;9.268;2022-10-31T11:15:00;97597.84;;;19.26;62.96
4814;BME280;15375;48.540;9.268;2022-10-31T11:17:31;97600.41;;;19.38;62.60
4814;BME280;15375;48.540;9.268;2022-10-31T11:22:47;97591.88;;;19.74;62.91
4814;BME280;15375;48.540;9.268;2022-10-31T11:27:45;97574.09;;;20.43;60.72
4814;BME280;15375;48.540;9.268;2022-10-31T11:30:12;97583.34;;;20.25;61.64
4814;BME280;15375;48.540;9.268;2022-10-31T11:32:46;97575.13;;;20.46;63.01
4814;BME280;15375;48.540;9.268;2022-10-31T11:35:16;97582.41;;;20.05;64.83
4814;BME280;15375;48.540;9.268;2022-10-31T11:37:45;97566.47;;;20.14;65.07
4814;BME280;15375;48.540;9.268;2022-10-31T11:40:22;97560.47;;;20.16;62.33
4814;BME280;15375;48.540;9.268;2022-10-31T11:42:49;97555.94;;;20.57;60.23
4814;BME280;15375;48.540;9.268;2022-10-31T11:47:54;97546.91;;;20.03;60.63
4814;BME280;15375;48.540;9.268;2022-10-31T11:50:21;97550.94;;;20.75;60.05
4814;BME280;15375;48.540;9.268;2022-10-31T11:52:48;97530.06;;;20.94;58.42
4814;BME280;15375;48.540;9.268;2022-10-31T11:55:32;97550.53;;;20.82;62.77
4814;BME280;15375;48.540;9.268;2022-10-31T11:57:58;97533.38;;;20.78;61.56
4814;BME280;15375;48.540;9.268;2022-10-31T12:00:37;97530.56;;;20.93;60.40
4814;BME280;15375;48.540;9.268;2022-10-31T12:08:27;97531.38;;;20.64;61.18
4814;BME280;15375;48.540;9.268;2022-10-31T12:11:31;97538.34;;;20.30;65.96
4814;BME280;15375;48.540;9.268;2022-10-31T12:16:29;97544.94;;;19.56;70.30
4814;BME280;15375;48.540;9.268;2022-10-31T12:19:00;97533.19;;;19.47;72.84
4814;BME280;15375;48.540;9.268;2022-10-31T12:21:47;97534.53;;;19.51;71.62
4814;BME280;15375;48.540;9.268;2022-10-31T12:35:40;97519.66;;;19.16;76.69
4814;BME280;15375;48.540;9.268;2022-10-31T12:38:34;97514.28;;;18.98;78.51
4814;BME280;15375;48.540;9.268;2022-10-31T12:41:14;97498.69;;;18.77;76.85
4814;BME280;15375;48.540;9.268;2022-10-31T12:46:55;97503.41;;;18.43;80.17
4814;BME280;15375;48.540;9.268;2022-10-31T12:49:34;97500.94;;;18.45;81.03
4814;BME280;15375;48.540;9.268;2022-10-31T12:55:13;97486.22;;;18.58;77.91
4814;BME280;15375;48.540;9.268;2022-10-31T12:57:52;97476.44;;;18.48;79.81
4814;BME280;15375;48.540;9.268;2022-10-31T13:00:19;97468.44;;;18.50;77.97
4814;BME280;15375;48.540;9.268;2022-10-31T13:02:56;97476.25;;;18.51;79.99
4814;BME280;15375;48.540;9.268;2022-10-31T13:05:34;97462.34;;;18.27;82.72
4814;BME280;15375;48.540;9.268;2022-10-31T13:08:18;97473.66;;;18.38;82.11
4814;BME280;15375;48.540;9.268;2022-10-31T13:10:49;97465.97;;;18.52;82.82
4814;BME280;15375;48.540;9.268;2022-10-31T13:16:15;97453.59;;;18.71;80.25
4814;BME280;15375;48.540;9.268;2022-10-31T13:18:54;97443.78;;;18.70;81.26
4814;BME280;15375;48.540;9.268;2022-10-31T13:21:25;97456.66;;;18.73;82.01
4814;BME280;15375;48.540;9.268;2022-10-31T13:23:51;97451.78;;;18.68;81.87
4814;BME280;15375;48.540;9.268;2022-10-31T13:28:57;97446.13;;;18.86;79.07
4814;BME280;15375;48.540;9.268;2022-10-31T13:31:25;97446.31;;;19.06;73.51
4814;BME280;15375;48.540;9.268;2022-10-31T13:33:58;97443.22;;;19.13;74.43
4814;BME280;15375;48.540;9.268;2022-10-31T13:36:36;97426.56;;;19.22;74.48
4814;BME280;15375;48.540;9.268;2022-10-31T13:39:30;97423.56;;;19.11;74.84
4814;BME280;15375;48.540;9.268;2022-10-31T13:42:03;97424.16;;;19.15;75.41
4814;BME280;15375;48.540;9.268;2022-10-31T13:44:30;97422.44;;;19.18;77.97
4814;BME280;15375;48.540;9.268;2022-10-31T13:46:57;97412.16;;;19.18;73.02
4814;BME280;15375;48.540;9.268;2022-10-31T13:54:39;97409.16;;;19.07;71.09
4814;BME280;15375;48.540;9.268;2022-10-31T13:57:33;97413.22;;;18.97;71.36
4814;BME280;15375;48.540;9.268;2022-10-31T14:02:45;97409.28;;;19.13;75.23
4814;BME280;15375;48.540;9.268;2022-10-31T14:05:33;97399.72;;;19.13;72.67
4814;BME280;15375;48.540;9.268;2022-10-31T14:08:04;97412.50;;;19.11;76.09
4814;BME280;15375;48.540;9.268;2022-10-31T14:10:48;97401.78;;;19.28;78.17
4814;BME280;15375;48.540;9.268;2022-10-31T14:13:20;97395.97;;;19.02;71.10
4814;BME280;15375;48.540;9.268;2022-10-31T14:16:05;97387.28;;;19.18;70.30
4814;BME280;15375;48.540;9.268;2022-10-31T14:18:34;97379.00;;;19.33;70.96
4814;BME280;15375;48.540;9.268;2022-10-31T14:21:00;97381.03;;;19.47;71.95
4814;BME280;15375;48.540;9.268;2022-10-31T14:23:39;97398.69;;;19.64;72.94
4814;BME280;15375;48.540;9.268;2022-10-31T14:28:59;97377.59;;;19.52;67.57
4814;BME280;15375;48.540;9.268;2022-10-31T14:31:42;97370.22;;;19.34;68.43
4814;BME280;15375;48.540;9.268;2022-10-31T14:34:41;97372.88;;;19.29;68.52
4814;BME280;15375;48.540;9.268;2022-10-31T14:42:32;97382.69;;;19.15;69.61
4814;BME280;15375;48.540;9.268;2022-10-31T14:50:59;97378.00;;;18.83;72.94
4814;BME280;15375;48.540;9.268;2022-10-31T14:53:29;97383.56;;;18.74;72.64
4814;BME280;15375;48.540;9.268;2022-10-31T14:55:57;97380.25;;;18.70;73.17
4814;BME280;15375;48.540;9.268;2022-10-31T14:58:35;97378.28;;;18.61;73.38
4814;BME280;15375;48.540;9.268;2022-10-31T15:01:02;97376.66;;;18.55;73.41
4814;BME280;15375;48.540;9.268;2022-10-31T15:06:00;97375.13;;;18.44;74.26
4814;BME280;15375;48.540;9.268;2022-10-31T15:10:58;97386.25;;;18.26;76.35
4814;BME280;15375;48.540;9.268;2022-10-31T15:13:27;97357.84;;;18.02;77.68
4814;BME280;15375;48.540;9.268;2022-10-31T15:15:54;97385.44;;;18.02;78.63
4814;BME280;15375;48.540;9.268;2022-10-31T15:18:24;97370.78;;;17.87;79.56